Time;durP1;ratioP1;P1;durP2;ratioP2;P2;SDS_P1;SDS_P2;PMS_P1;PMS_P2;Temp;Humidity;BMP_temperature;BMP_pressure;BME280_temperature;BME280_humidity;BME280_pressure;Samples;Min_cycle;Max_cycle;Signal;HPM_P1;HPM_P2
2024/01/07 00:01:30;;;;;;;;;;;6.40;88.10;;;;;;5118749;27;20388;-61
2024/01/07 00:03:57;;;;;;;;;;;6.40;88.20;;;;;;5110045;27;19924;-60
2024/01/07 00:06:30;;;;;;;;;;;6.40;88.10;;;;;;5109040;27;20014;-59
2024/01/07 00:09:03;;;;;;;;;;;6.40;88.00;;;;;;5120818;27;19967;-61
2024/01/07 00:11:38;;;;;;;;;;;6.40;88.10;;;;;;5100324;27;20014;-59
2024/01/07 00:14:11;;;;;;;;;;;6.40;87.90;;;;;;5107468;27;19959;-61
2024/01/07 00:16:44;;;;;;;;;;;6.30;87.80;;;;;;5106051;27;19927;-60
2024/01/07 00:19:17;;;;;;;;;;;6.30;87.80;;;;;;5114739;27;19928;-60
2024/01/07 00:21:50;;;;;;;;;;;6.30;87.80;;;;;;5100540;27;19939;-60
2024/01/07 00:24:25;;;;;;;;;;;6.30;87.80;;;;;;5103152;27;20404;-60
2024/01/07 00:27:00;;;;;;;;;;;6.30;87.80;;;;;;5116646;27;19932;-61
2024/01/07 00:29:26;;;;;;;;;;;6.30;87.80;;;;;;5109073;27;19992;-59
2024/01/07 00:31:59;;;;;;;;;;;6.30;87.80;;;;;;5117850;27;20281;-60
2024/01/07 00:34:33;;;;;;;;;;;6.30;87.70;;;;;;5087116;27;19927;-58
2024/01/07 00:37:12;;;;;;;;;;;6.30;87.70;;;;;;5090424;27;19927;-61
2024/01/07 00:39:45;;;;;;;;;;;6.20;87.70;;;;;;5117854;27;19924;-59
2024/01/07 00:42:20;;;;;;;;;;;6.20;87.70;;;;;;5088922;28;20300;-61
2024/01/07 00:44:53;;;;;;;;;;;6.30;87.60;;;;;;5100820;27;20019;-61
2024/01/07 00:47:26;;;;;;;;;;;6.20;87.60;;;;;;5099808;27;19955;-61
2024/01/07 00:49:59;;;;;;;;;;;6.30;87.60;;;;;;5117798;27;19966;-64
2024/01/07 00:52:32;;;;;;;;;;;6.20;87.50;;;;;;5118405;27;20039;-65
2024/01/07 00:55:07;;;;;;;;;;;6.20;87.40;;;;;;5117979;27;19971;-64
2024/01/07 00:57:42;;;;;;;;;;;6.20;87.40;;;;;;5096504;27;20371;-65
2024/01/07 01:00:16;;;;;;;;;;;6.20;87.30;;;;;;5102299;27;20019;-64
2024/01/07 01:02:49;;;;;;;;;;;6.20;87.30;;;;;;5100172;27;19928;-65
2024/01/07 01:05:22;;;;;;;;;;;6.20;87.40;;;;;;5112435;27;20013;-64
2024/01/07 01:07:56;;;;;;;;;;;6.20;87.20;;;;;;5095816;28;19947;-65
2024/01/07 01:10:28;;;;;;;;;;;6.20;87.10;;;;;;5087702;28;19924;-63
2024/01/07 01:13:03;;;;;;;;;;;6.30;87.10;;;;;;5099411;27;19924;-65
2024/01/07 01:15:37;;;;;;;;;;;6.20;87.10;;;;;;5118254;27;20498;-65
2024/01/07 01:18:10;;;;;;;;;;;6.20;87.20;;;;;;5088736;28;19928;-63
2024/01/07 01:20:43;;;;;;;;;;;6.20;87.20;;;;;;5117144;27;19928;-65
2024/01/07 01:23:16;;;;;;;;;;;6.20;87.20;;;;;;5118902;27;19987;-65
2024/01/07 01:25:49;;;;;;;;;;;6.20;87.20;;;;;;5108921;27;19924;-63
2024/01/07 01:28:24;;;;;;;;;;;6.20;87.20;;;;;;5094458;28;19950;-65
2024/01/07 01:30:57;;;;;;;;;;;6.20;87.10;;;;;;5087790;28;19942;-65
2024/01/07 01:33:30;;;;;;;;;;;6.10;87.30;;;;;;5083662;28;20448;-65
2024/01/07 01:36:05;;;;;;;;;;;6.20;87.30;;;;;;5103598;27;20438;-66
2024/01/07 01:38:38;;;;;;;;;;;6.10;87.30;;;;;;5091793;28;20002;-65
2024/01/07 01:41:11;;;;;;;;;;;6.10;87.60;;;;;;5094278;27;19950;-64
2024/01/07 01:43:46;;;;;;;;;;;6.10;87.60;;;;;;5085944;28;20323;-64
2024/01/07 01:46:19;;;;;;;;;;;6.10;87.60;;;;;;5094141;28;19924;-65
2024/01/07 01:48:46;;;;;;;;;;;6.10;87.60;;;;;;5118832;27;19927;-64
2024/01/07 01:51:20;;;;;;;;;;;6.10;87.60;;;;;;5102633;27;19951;-65
2024/01/07 01:53:55;;;;;;;;;;;6.10;87.70;;;;;;5092098;28;20447;-65
2024/01/07 01:56:29;;;;;;;;;;;6.10;87.70;;;;;;5105702;27;20664;-64
2024/01/07 01:59:04;;;;;;;;;;;6.10;87.60;;;;;;5105586;27;19930;-71
2024/01/07 02:01:31;;;;;;;;;;;6.10;87.50;;;;;;5099909;28;19932;-72
2024/01/07 02:04:29;;;;;;;;;;;6.20;87.40;;;;;;5084921;28;20281;-72
2024/01/07 02:07:02;;;;;;;;;;;6.10;87.40;;;;;;5103528;28;19932;-70
2024/01/07 02:09:35;;;;;;;;;;;6.10;87.40;;;;;;5095391;28;19935;-70
2024/01/07 02:12:11;;;;;;;;;;;6.10;87.30;;;;;;5105646;28;19931;-71
2024/01/07 02:14:40;;;;;;;;;;;6.10;87.10;;;;;;5102063;28;19930;-72
2024/01/07 02:17:12;;;;;;;;;;;6.00;87.30;;;;;;5101032;28;19996;-71
2024/01/07 02:19:45;;;;;;;;;;;6.00;87.20;;;;;;5097925;27;19935;-71
2024/01/07 02:22:19;;;;;;;;;;;6.00;87.10;;;;;;5101751;27;19973;-71
2024/01/07 02:24:54;;;;;;;;;;;5.90;87.20;;;;;;5094237;27;19924;-71
2024/01/07 02:27:27;;;;;;;;;;;5.90;87.20;;;;;;5103968;27;19924;-72
2024/01/07 02:29:59;;;;;;;;;;;5.90;87.10;;;;;;5119262;27;20014;-70
2024/01/07 02:32:35;;;;;;;;;;;6.00;87.20;;;;;;5121141;27;19951;-73
2024/01/07 02:35:09;;;;;;;;;;;5.90;87.10;;;;;;5104640;27;19959;-73
2024/01/07 02:37:35;;;;;;;;;;;5.90;87.10;;;;;;5095479;27;19927;-70
2024/01/07 02:40:10;;;;;;;;;;;5.90;87.30;;;;;;5121363;27;20366;-72
2024/01/07 02:42:43;;;;;;;;;;;5.90;87.30;;;;;;5111307;27;19972;-71
2024/01/07 02:45:16;;;;;;;;;;;5.90;87.20;;;;;;5097838;28;19924;-72
2024/01/07 02:47:49;;;;;;;;;;;5.90;87.20;;;;;;5098081;27;20011;-72
2024/01/07 02:50:22;;;;;;;;;;;5.90;87.10;;;;;;5120417;27;20018;-69
2024/01/07 02:52:55;;;;;;;;;;;5.90;87.10;;;;;;5094932;27;20328;-72
2024/01/07 02:55:30;;;;;;;;;;;5.90;87.00;;;;;;5089540;27;19999;-70
2024/01/07 02:58:03;;;;;;;;;;;5.90;86.90;;;;;;5105233;27;19939;-72
2024/01/07 03:00:30;;;;;;;;;;;5.90;86.70;;;;;;5116255;27;19927;-71
2024/01/07 03:03:04;;;;;;;;;;;5.90;86.90;;;;;;5116049;27;19928;-71
2024/01/07 03:05:36;;;;;;;;;;;5.90;86.70;;;;;;5108036;27;20492;-71
2024/01/07 03:08:09;;;;;;;;;;;5.90;86.70;;;;;;5104510;27;19934;-71
2024/01/07 03:10:44;;;;;;;;;;;5.90;86.60;;;;;;5118310;27;19928;-62
2024/01/07 03:13:16;;;;;;;;;;;5.80;86.50;;;;;;5101928;27;19938;-62
2024/01/07 03:15:49;;;;;;;;;;;5.80;86.40;;;;;;5103195;27;19931;-63
2024/01/07 03:18:22;;;;;;;;;;;5.80;86.40;;;;;;5106661;27;19923;-63
2024/01/07 03:20:55;;;;;;;;;;;5.80;86.50;;;;;;5094705;28;20022;-62
2024/01/07 03:23:28;;;;;;;;;;;5.80;86.40;;;;;;5105167;27;19951;-62
2024/01/07 03:26:03;;;;;;;;;;;5.80;86.30;;;;;;5105678;27;19963;-63
2024/01/07 03:28:36;;;;;;;;;;;5.80;86.30;;;;;;5105540;27;19980;-62
2024/01/07 03:31:10;;;;;;;;;;;5.80;86.10;;;;;;5119190;27;20374;-63
2024/01/07 03:33:44;;;;;;;;;;;5.80;86.10;;;;;;5110299;27;20598;-63
2024/01/07 03:36:17;;;;;;;;;;;5.90;86.00;;;;;;5107763;27;19934;-62
2024/01/07 03:38:50;;;;;;;;;;;5.80;85.80;;;;;;5092356;27;19994;-62
2024/01/07 03:41:25;;;;;;;;;;;5.70;85.90;;;;;;5117546;27;19934;-62
2024/01/07 03:43:58;;;;;;;;;;;5.70;85.90;;;;;;5106547;27;19927;-62
2024/01/07 03:46:31;;;;;;;;;;;5.80;85.80;;;;;;5103464;27;20370;-62
2024/01/07 03:49:04;;;;;;;;;;;5.80;85.70;;;;;;5118202;27;19946;-63
2024/01/07 03:51:37;;;;;;;;;;;5.80;85.80;;;;;;5109458;27;20026;-62
2024/01/07 03:54:10;;;;;;;;;;;5.80;85.80;;;;;;5118915;27;19990;-63
2024/01/07 03:56:45;;;;;;;;;;;5.80;85.80;;;;;;5096601;27;20015;-63
2024/01/07 03:59:18;;;;;;;;;;;5.80;85.70;;;;;;5103167;27;19924;-61
2024/01/07 04:01:51;;;;;;;;;;;5.80;85.80;;;;;;5101535;27;19927;-62
2024/01/07 04:04:18;;;;;;;;;;;5.80;85.70;;;;;;5098937;28;19924;-61
2024/01/07 04:06:51;;;;;;;;;;;5.70;85.70;;;;;;5089683;27;20293;-63
2024/01/07 04:09:31;;;;;;;;;;;5.70;85.70;;;;;;5097090;28;19946;-64
2024/01/07 04:12:07;;;;;;;;;;;5.80;85.60;;;;;;5116640;27;19952;-63
2024/01/07 04:14:39;;;;;;;;;;;5.70;85.40;;;;;;5094640;27;19923;-61
2024/01/07 04:17:12;;;;;;;;;;;5.70;85.40;;;;;;5119567;27;19936;-62
2024/01/07 04:19:46;;;;;;;;;;;5.70;85.10;;;;;;5118078;27;20014;-63
2024/01/07 04:22:19;;;;;;;;;;;5.70;85.00;;;;;;5113172;27;19935;-62
2024/01/07 04:24:52;;;;;;;;;;;5.60;84.90;;;;;;5110374;27;19959;-66
2024/01/07 04:27:27;;;;;;;;;;;5.70;84.80;;;;;;5110442;27;19931;-60
2024/01/07 04:30:00;;;;;;;;;;;5.60;84.70;;;;;;5118072;27;19923;-61
2024/01/07 04:32:33;;;;;;;;;;;5.60;84.80;;;;;;5102266;27;19924;-66
2024/01/07 04:35:07;;;;;;;;;;;5.60;84.50;;;;;;5092902;28;20015;-64
2024/01/07 04:38:02;;;;;;;;;;;5.60;84.50;;;;;;5090001;28;19973;-62
2024/01/07 04:40:35;;;;;;;;;;;5.60;84.50;;;;;;5101765;27;19923;-63
2024/01/07 04:43:10;;;;;;;;;;;5.50;84.40;;;;;;5095280;28;19969;-62
2024/01/07 04:45:43;;;;;;;;;;;5.50;84.30;;;;;;5094107;28;19934;-62
2024/01/07 04:48:16;;;;;;;;;;;5.50;84.20;;;;;;5086983;28;20043;-61
2024/01/07 04:50:50;;;;;;;;;;;5.50;84.00;;;;;;5106399;27;19928;-63
2024/01/07 04:53:23;;;;;;;;;;;5.50;84.10;;;;;;5114914;27;20032;-62
2024/01/07 04:55:56;;;;;;;;;;;5.50;83.80;;;;;;5109114;27;19939;-63
2024/01/07 04:58:31;;;;;;;;;;;5.40;83.60;;;;;;5115060;27;20382;-62
2024/01/07 05:01:04;;;;;;;;;;;5.40;83.70;;;;;;5118807;27;19972;-61
2024/01/07 05:03:37;;;;;;;;;;;5.30;83.70;;;;;;5102114;27;20019;-61
2024/01/07 05:06:11;;;;;;;;;;;5.40;83.50;;;;;;5097629;27;19928;-61
2024/01/07 05:08:43;;;;;;;;;;;5.30;83.60;;;;;;5100856;27;19928;-61
2024/01/07 05:11:17;;;;;;;;;;;5.30;83.60;;;;;;5079350;28;20275;-61
2024/01/07 05:13:51;;;;;;;;;;;5.30;83.30;;;;;;5107797;27;20275;-61
2024/01/07 05:16:24;;;;;;;;;;;5.30;83.20;;;;;;5100565;27;19970;-62
2024/01/07 05:18:56;;;;;;;;;;;5.30;83.10;;;;;;5118421;27;19927;-64
2024/01/07 05:21:29;;;;;;;;;;;5.30;83.00;;;;;;5109022;27;19938;-61
2024/01/07 05:24:02;;;;;;;;;;;5.30;82.70;;;;;;5113614;27;19931;-62
2024/01/07 05:26:29;;;;;;;;;;;5.20;82.80;;;;;;5111505;27;19955;-63
2024/01/07 05:29:04;;;;;;;;;;;5.20;82.60;;;;;;5115196;27;20015;-61
2024/01/07 05:31:38;;;;;;;;;;;5.20;82.60;;;;;;5115619;27;19935;-61
2024/01/07 05:34:11;;;;;;;;;;;5.20;82.40;;;;;;5104731;27;19988;-61
2024/01/07 05:36:43;;;;;;;;;;;5.20;82.70;;;;;;5105730;27;19927;-59
2024/01/07 05:39:17;;;;;;;;;;;5.10;82.80;;;;;;5102167;27;19935;-59
2024/01/07 05:41:49;;;;;;;;;;;5.10;82.70;;;;;;5115919;27;19931;-61
2024/01/07 05:44:24;;;;;;;;;;;5.10;82.40;;;;;;5100539;27;20018;-59
2024/01/07 05:46:57;;;;;;;;;;;5.00;82.80;;;;;;5101220;27;19932;-60
2024/01/07 05:49:31;;;;;;;;;;;5.00;82.70;;;;;;5117517;27;19959;-60
2024/01/07 05:52:04;;;;;;;;;;;5.00;82.60;;;;;;5106951;27;19968;-60
2024/01/07 05:54:37;;;;;;;;;;;5.00;82.50;;;;;;5097973;28;19959;-61
2024/01/07 05:57:11;;;;;;;;;;;5.00;82.60;;;;;;5088682;28;19931;-61
2024/01/07 05:59:46;;;;;;;;;;;4.90;82.50;;;;;;5114596;27;19930;-59
2024/01/07 06:02:21;;;;;;;;;;;4.80;82.30;;;;;;5111419;27;20083;-60
2024/01/07 06:04:47;;;;;;;;;;;4.80;82.40;;;;;;5097639;28;19931;-60
2024/01/07 06:07:20;;;;;;;;;;;4.80;82.50;;;;;;5111036;28;19928;-61
2024/01/07 06:09:54;;;;;;;;;;;4.70;82.30;;;;;;5105271;28;20046;-60
2024/01/07 06:12:27;;;;;;;;;;;4.70;82.40;;;;;;5114587;28;19924;-61
2024/01/07 06:15:02;;;;;;;;;;;4.70;82.30;;;;;;5105614;28;19992;-60
2024/01/07 06:17:36;;;;;;;;;;;4.70;82.40;;;;;;5100068;28;19928;-60
2024/01/07 06:20:15;;;;;;;;;;;4.70;82.40;;;;;;5089053;28;19928;-61
2024/01/07 06:22:49;;;;;;;;;;;4.70;82.50;;;;;;5091150;28;19924;-60
2024/01/07 06:25:22;;;;;;;;;;;4.70;82.40;;;;;;5102927;28;19936;-61
2024/01/07 06:27:55;;;;;;;;;;;4.70;82.40;;;;;;5107938;28;19931;-61
2024/01/07 06:30:30;;;;;;;;;;;4.70;82.30;;;;;;5111175;28;20247;-60
2024/01/07 06:33:02;;;;;;;;;;;4.60;82.20;;;;;;5100796;28;20431;-59
2024/01/07 06:35:35;;;;;;;;;;;4.60;82.00;;;;;;5103128;28;19934;-60
2024/01/07 06:38:09;;;;;;;;;;;4.60;82.20;;;;;;5104874;28;19927;-61
2024/01/07 06:40:42;;;;;;;;;;;4.60;81.80;;;;;;5093864;28;19924;-75
2024/01/07 06:43:15;;;;;;;;;;;4.60;81.80;;;;;;5102839;28;19924;-72
2024/01/07 06:45:50;;;;;;;;;;;4.70;81.90;;;;;;5108077;28;19992;-74
2024/01/07 06:48:22;;;;;;;;;;;4.70;81.70;;;;;;5108741;28;20007;-75
2024/01/07 06:50:55;;;;;;;;;;;4.60;81.70;;;;;;5106666;28;19931;-74
2024/01/07 06:53:28;;;;;;;;;;;4.60;81.60;;;;;;5104019;28;19924;-74
2024/01/07 06:56:01;;;;;;;;;;;4.60;81.40;;;;;;5109677;28;19992;-73
2024/01/07 06:58:35;;;;;;;;;;;4.60;81.30;;;;;;5100187;28;19985;-75
2024/01/07 07:01:10;;;;;;;;;;;4.50;80.90;;;;;;5106962;27;19973;-72
2024/01/07 07:03:43;;;;;;;;;;;4.50;80.60;;;;;;5109406;27;19999;-72
2024/01/07 07:06:16;;;;;;;;;;;4.50;80.90;;;;;;5093377;28;19924;-73
2024/01/07 07:08:49;;;;;;;;;;;4.40;80.60;;;;;;5092224;28;19944;-75
2024/01/07 07:11:22;;;;;;;;;;;4.50;80.50;;;;;;5106293;27;19953;-74
2024/01/07 07:14:30;;;;;;;;;;;4.50;80.40;;;;;;5107153;27;23926;-74
2024/01/07 07:17:05;;;;;;;;;;;4.40;80.20;;;;;;5114991;27;19932;-76
2024/01/07 07:19:39;;;;;;;;;;;4.40;80.10;;;;;;5107361;27;20020;-74
2024/01/07 07:22:12;;;;;;;;;;;4.40;80.10;;;;;;5108953;27;19935;-75
2024/01/07 07:24:45;;;;;;;;;;;4.40;79.90;;;;;;5094986;28;19928;-73
2024/01/07 07:27:18;;;;;;;;;;;4.30;79.80;;;;;;5106575;27;19932;-73
2024/01/07 07:29:50;;;;;;;;;;;4.30;79.70;;;;;;5096086;27;19946;-73
2024/01/07 07:32:25;;;;;;;;;;;4.30;79.50;;;;;;5118795;27;19931;-74
2024/01/07 07:34:58;;;;;;;;;;;4.20;79.70;;;;;;5106376;27;20492;-75
2024/01/07 07:37:32;;;;;;;;;;;4.30;79.50;;;;;;5098953;28;19932;-74
2024/01/07 07:40:05;;;;;;;;;;;4.20;79.30;;;;;;5110220;27;19923;-73
2024/01/07 07:42:39;;;;;;;;;;;4.30;79.60;;;;;;5107461;27;19950;-74
2024/01/07 07:45:12;;;;;;;;;;;4.20;79.40;;;;;;5095977;28;19932;-73
2024/01/07 07:47:47;;;;;;;;;;;4.20;79.20;;;;;;5107044;27;19935;-73
2024/01/07 07:50:23;;;;;;;;;;;4.20;79.10;;;;;;5101610;27;20298;-60
2024/01/07 07:52:57;;;;;;;;;;;4.20;79.20;;;;;;5113328;27;19975;-60
2024/01/07 07:55:30;;;;;;;;;;;4.20;79.30;;;;;;5103453;27;19932;-61
2024/01/07 07:58:03;;;;;;;;;;;4.20;79.20;;;;;;5114947;27;19933;-61
2024/01/07 08:00:36;;;;;;;;;;;4.20;79.10;;;;;;5112745;27;19939;-61
2024/01/07 08:03:10;;;;;;;;;;;4.20;79.00;;;;;;5098708;28;19928;-61
2024/01/07 08:05:44;;;;;;;;;;;4.20;79.20;;;;;;5114846;27;20023;-64
2024/01/07 08:08:17;;;;;;;;;;;4.20;79.20;;;;;;5112673;27;19923;-62
2024/01/07 08:10:51;;;;;;;;;;;4.20;79.30;;;;;;5103313;27;19938;-60
2024/01/07 08:13:24;;;;;;;;;;;4.20;79.10;;;;;;5100235;28;19970;-61
2024/01/07 08:15:57;;;;;;;;;;;4.20;79.10;;;;;;5117089;27;19931;-61
2024/01/07 08:18:31;;;;;;;;;;;4.20;79.20;;;;;;5103771;27;20427;-61
2024/01/07 08:21:05;;;;;;;;;;;4.20;79.00;;;;;;5112437;27;19940;-59
2024/01/07 08:23:37;;;;;;;;;;;4.10;79.30;;;;;;5116947;27;19931;-59
2024/01/07 08:26:11;;;;;;;;;;;4.10;78.70;;;;;;5115735;27;19967;-61
2024/01/07 08:28:46;;;;;;;;;;;4.00;78.10;;;;;;5100217;27;20007;-61
2024/01/07 08:31:19;;;;;;;;;;;4.00;78.60;;;;;;5110703;27;19981;-60
2024/01/07 08:33:53;;;;;;;;;;;4.00;78.50;;;;;;5106574;27;19928;-60
2024/01/07 08:36:27;;;;;;;;;;;4.00;78.40;;;;;;5119147;27;19981;-59
2024/01/07 08:39:00;;;;;;;;;;;4.10;78.10;;;;;;5115356;27;19924;-61
2024/01/07 08:41:33;;;;;;;;;;;4.10;77.80;;;;;;5113374;27;19942;-61
2024/01/07 08:43:59;;;;;;;;;;;4.00;78.00;;;;;;5104581;27;19928;-61
2024/01/07 08:46:33;;;;;;;;;;;4.00;78.20;;;;;;5087982;28;19924;-60
2024/01/07 08:49:07;;;;;;;;;;;4.00;78.00;;;;;;5101677;27;19924;-60
2024/01/07 08:51:41;;;;;;;;;;;3.90;77.70;;;;;;5105842;27;19965;-61
2024/01/07 08:54:14;;;;;;;;;;;4.00;78.10;;;;;;5088732;28;19966;-61
2024/01/07 08:56:47;;;;;;;;;;;4.00;78.00;;;;;;5103027;27;20012;-61
2024/01/07 08:59:13;;;;;;;;;;;4.00;77.90;;;;;;5093402;28;19931;-63
2024/01/07 09:02:13;;;;;;;;;;;4.00;77.80;;;;;;5100133;27;19947;-62
2024/01/07 09:04:59;;;;;;;;;;;4.10;77.70;;;;;;5091450;27;19934;-62
2024/01/07 09:07:33;;;;;;;;;;;4.00;77.60;;;;;;5101662;27;20375;-62
2024/01/07 09:10:10;;;;;;;;;;;3.90;77.50;;;;;;5099862;27;19924;-61
2024/01/07 09:12:43;;;;;;;;;;;3.90;77.40;;;;;;5089703;28;20022;-61
2024/01/07 09:15:18;;;;;;;;;;;3.90;77.50;;;;;;5095903;27;19967;-62
2024/01/07 09:17:52;;;;;;;;;;;3.90;77.10;;;;;;5105930;27;19993;-63
2024/01/07 09:20:26;;;;;;;;;;;3.90;76.80;;;;;;5112319;27;19927;-62
2024/01/07 09:23:00;;;;;;;;;;;3.90;76.50;;;;;;5103364;27;20370;-64
2024/01/07 09:25:33;;;;;;;;;;;3.90;76.30;;;;;;5103191;27;19924;-60
2024/01/07 09:28:00;;;;;;;;;;;3.80;76.30;;;;;;5111794;27;19924;-62
2024/01/07 09:30:34;;;;;;;;;;;3.70;75.90;;;;;;5108937;27;19938;-63
2024/01/07 09:33:07;;;;;;;;;;;3.70;76.30;;;;;;5096615;28;19967;-61
2024/01/07 09:35:41;;;;;;;;;;;3.70;76.10;;;;;;5099469;28;19928;-63
2024/01/07 09:38:15;;;;;;;;;;;3.70;76.20;;;;;;5097906;28;19954;-66
2024/01/07 09:41:00;;;;;;;;;;;3.70;76.20;;;;;;5099303;27;19924;-63
2024/01/07 09:43:33;;;;;;;;;;;3.70;76.00;;;;;;5117288;27;20377;-63
2024/01/07 09:46:06;;;;;;;;;;;3.70;76.20;;;;;;5110329;27;19928;-62
2024/01/07 09:48:39;;;;;;;;;;;3.70;76.10;;;;;;5112485;27;20396;-62
2024/01/07 09:51:13;;;;;;;;;;;3.70;76.10;;;;;;5116064;27;19988;-62
2024/01/07 09:53:47;;;;;;;;;;;3.70;75.90;;;;;;5112713;27;20018;-63
2024/01/07 09:56:23;;;;;;;;;;;3.70;75.70;;;;;;5092401;28;20396;-63
2024/01/07 09:58:57;;;;;;;;;;;3.70;75.70;;;;;;5105638;27;20014;-63
2024/01/07 10:01:30;;;;;;;;;;;3.70;76.10;;;;;;5105357;27;19923;-61
2024/01/07 10:04:04;;;;;;;;;;;3.80;76.00;;;;;;5104156;28;19928;-63
2024/01/07 10:06:58;;;;;;;;;;;3.80;75.80;;;;;;5106486;28;20020;-61
2024/01/07 10:09:49;;;;;;;;;;;3.80;75.80;;;;;;5072691;28;20065;-61
2024/01/07 10:12:23;;;;;;;;;;;3.80;76.00;;;;;;5068874;28;19928;-61
2024/01/07 10:14:57;;;;;;;;;;;3.70;76.20;;;;;;5063399;28;20000;-62
2024/01/07 10:17:30;;;;;;;;;;;3.70;76.10;;;;;;5073128;28;20013;-61
2024/01/07 10:20:05;;;;;;;;;;;3.80;76.00;;;;;;5067589;28;20386;-61
2024/01/07 10:22:39;;;;;;;;;;;3.70;75.70;;;;;;5073722;28;19924;-60
2024/01/07 10:25:14;;;;;;;;;;;3.70;75.80;;;;;;5065580;28;19939;-62
2024/01/07 10:27:48;;;;;;;;;;;3.70;75.80;;;;;;5072675;28;20568;-61
2024/01/07 10:30:22;;;;;;;;;;;3.70;75.70;;;;;;5069870;28;19934;-61
2024/01/07 10:32:56;;;;;;;;;;;3.70;75.80;;;;;;5068669;28;20006;-60
2024/01/07 10:35:33;;;;;;;;;;;3.70;75.70;;;;;;5072053;28;19925;-60
2024/01/07 10:38:08;;;;;;;;;;;3.70;75.40;;;;;;5077491;28;19961;-60
2024/01/07 10:40:44;;;;;;;;;;;3.60;75.30;;;;;;5075464;28;19924;-61
2024/01/07 10:43:17;;;;;;;;;;;3.50;75.20;;;;;;5060465;28;20414;-61
2024/01/07 10:45:51;;;;;;;;;;;3.50;75.60;;;;;;5073178;28;19928;-59
2024/01/07 10:48:27;;;;;;;;;;;3.40;75.20;;;;;;5077674;28;19931;-61
2024/01/07 10:51:02;;;;;;;;;;;3.50;75.50;;;;;;5066815;28;19932;-62
2024/01/07 10:53:44;;;;;;;;;;;3.40;75.40;;;;;;5079129;28;19943;-62
2024/01/07 10:56:20;;;;;;;;;;;3.40;75.40;;;;;;5075898;28;19971;-60
2024/01/07 10:58:54;;;;;;;;;;;3.40;75.30;;;;;;5078730;28;19938;-60
2024/01/07 11:01:28;;;;;;;;;;;3.50;75.50;;;;;;5061169;28;19936;-61
2024/01/07 11:04:02;;;;;;;;;;;3.50;75.20;;;;;;5075933;28;19932;-61
2024/01/07 11:06:39;;;;;;;;;;;3.50;75.40;;;;;;5075677;28;20007;-63
2024/01/07 11:09:19;;;;;;;;;;;3.60;75.50;;;;;;5074726;28;19932;-61
2024/01/07 11:11:53;;;;;;;;;;;3.50;75.50;;;;;;5076420;28;19962;-62
2024/01/07 11:14:36;;;;;;;;;;;3.50;75.70;;;;;;5074496;28;19959;-62
2024/01/07 11:17:09;;;;;;;;;;;3.40;75.40;;;;;;5077719;28;19928;-62
2024/01/07 11:19:50;;;;;;;;;;;3.40;75.60;;;;;;5084109;28;19936;-66
2024/01/07 11:22:26;;;;;;;;;;;3.50;75.50;;;;;;5094149;28;19924;-65
2024/01/07 11:25:00;;;;;;;;;;;3.50;75.80;;;;;;5095417;28;19928;-67
2024/01/07 11:27:35;;;;;;;;;;;3.50;75.40;;;;;;5105116;27;20313;-69
2024/01/07 11:30:19;;;;;;;;;;;3.40;75.20;;;;;;5102059;27;19923;-68
2024/01/07 11:32:59;;;;;;;;;;;3.30;75.20;;;;;;5111012;27;19928;-68
2024/01/07 11:35:51;;;;;;;;;;;3.20;75.50;;;;;;5110119;27;19934;-67
2024/01/07 11:38:35;;;;;;;;;;;3.30;75.50;;;;;;5110932;27;19973;-66
2024/01/07 11:41:10;;;;;;;;;;;3.30;75.50;;;;;;5106372;27;19967;-67
2024/01/07 11:43:54;;;;;;;;;;;3.40;75.40;;;;;;5106841;27;19932;-67
2024/01/07 11:46:27;;;;;;;;;;;3.40;75.40;;;;;;5117757;27;19928;-66
2024/01/07 11:49:18;;;;;;;;;;;3.30;75.50;;;;;;5120011;27;19930;-67
2024/01/07 11:51:51;;;;;;;;;;;3.30;75.10;;;;;;5116935;27;20022;-66
2024/01/07 11:54:24;;;;;;;;;;;3.20;75.30;;;;;;5106181;27;19947;-68
2024/01/07 11:56:58;;;;;;;;;;;3.30;75.10;;;;;;5095510;28;20378;-67
2024/01/07 11:59:32;;;;;;;;;;;3.20;75.20;;;;;;5106278;27;19928;-67
2024/01/07 12:02:05;;;;;;;;;;;3.40;75.60;;;;;;5108486;27;19928;-68
2024/01/07 12:04:39;;;;;;;;;;;3.40;75.40;;;;;;5118329;27;19943;-65
2024/01/07 12:07:14;;;;;;;;;;;3.30;75.40;;;;;;5114881;27;20017;-68
2024/01/07 12:09:47;;;;;;;;;;;3.30;75.30;;;;;;5110407;27;20286;-66
2024/01/07 12:12:15;;;;;;;;;;;3.30;75.40;;;;;;5106316;27;19928;-66
2024/01/07 12:14:49;;;;;;;;;;;3.20;75.10;;;;;;5092421;28;19924;-67
2024/01/07 12:17:23;;;;;;;;;;;3.30;75.30;;;;;;5115590;27;19927;-68
2024/01/07 12:19:57;;;;;;;;;;;3.30;75.30;;;;;;5110962;27;20018;-67
2024/01/07 12:22:31;;;;;;;;;;;3.40;75.30;;;;;;5120791;27;19927;-67
2024/01/07 12:25:04;;;;;;;;;;;3.40;75.10;;;;;;5118749;27;20006;-68
2024/01/07 12:27:41;;;;;;;;;;;3.40;74.90;;;;;;5109670;27;19927;-66
2024/01/07 12:30:17;;;;;;;;;;;3.30;74.30;;;;;;5075545;28;19932;-74
2024/01/07 12:36:05;;;;;;;;;;;3.20;73.60;;;;;;5104071;27;19978;-75
2024/01/07 12:38:38;;;;;;;;;;;3.20;74.10;;;;;;5095460;28;19962;-74
2024/01/07 12:41:12;;;;;;;;;;;3.20;73.80;;;;;;5104304;27;20359;-75
2024/01/07 12:43:46;;;;;;;;;;;3.20;73.60;;;;;;5106803;27;20375;-73
2024/01/07 12:46:20;;;;;;;;;;;3.10;73.10;;;;;;5110025;27;19988;-74
2024/01/07 12:48:53;;;;;;;;;;;3.10;73.30;;;;;;5110208;27;19950;-75
2024/01/07 12:51:26;;;;;;;;;;;3.10;72.90;;;;;;5116968;27;20008;-75
2024/01/07 12:54:03;;;;;;;;;;;3.10;73.30;;;;;;5116755;27;19923;-72
2024/01/07 12:56:36;;;;;;;;;;;3.10;73.00;;;;;;5110178;27;19931;-74
2024/01/07 12:59:04;;;;;;;;;;;3.20;73.20;;;;;;5115526;27;20342;-75
2024/01/07 13:01:37;;;;;;;;;;;3.10;73.00;;;;;;5119908;27;20292;-73
2024/01/07 13:04:10;;;;;;;;;;;3.00;73.30;;;;;;5114342;27;19947;-75
2024/01/07 13:06:43;;;;;;;;;;;2.90;72.40;;;;;;5109344;27;20274;-74
2024/01/07 13:09:16;;;;;;;;;;;2.90;72.70;;;;;;5109557;27;19930;-74
2024/01/07 13:11:49;;;;;;;;;;;3.00;72.20;;;;;;5108941;27;19924;-75
2024/01/07 13:14:42;;;;;;;;;;;3.00;72.20;;;;;;5091973;28;19974;-73
2024/01/07 13:17:15;;;;;;;;;;;3.00;71.70;;;;;;5099810;27;20271;-74
2024/01/07 13:19:49;;;;;;;;;;;3.00;71.80;;;;;;5108135;27;20007;-72
2024/01/07 13:22:22;;;;;;;;;;;2.90;71.50;;;;;;5106977;27;19932;-74
2024/01/07 13:24:55;;;;;;;;;;;3.00;70.90;;;;;;5097777;28;19953;-73
2024/01/07 13:27:28;;;;;;;;;;;2.90;70.80;;;;;;5092112;28;19928;-74
2024/01/07 13:30:02;;;;;;;;;;;2.80;70.00;;;;;;5108064;27;19961;-74
2024/01/07 13:32:36;;;;;;;;;;;2.90;70.00;;;;;;5107532;27;19931;-75
2024/01/07 13:35:10;;;;;;;;;;;2.90;69.80;;;;;;5107290;27;19924;-74
2024/01/07 13:37:51;;;;;;;;;;;3.00;70.00;;;;;;5097935;28;19973;-75
2024/01/07 13:40:24;;;;;;;;;;;2.90;69.60;;;;;;5109571;27;19928;-63
2024/01/07 13:42:57;;;;;;;;;;;2.90;69.10;;;;;;5102857;27;19932;-63
2024/01/07 13:45:31;;;;;;;;;;;2.80;68.50;;;;;;5097265;27;20435;-63
2024/01/07 13:48:07;;;;;;;;;;;2.80;68.80;;;;;;5084574;28;20825;-63
2024/01/07 13:50:40;;;;;;;;;;;2.80;69.10;;;;;;5109950;27;20034;-63
2024/01/07 13:53:13;;;;;;;;;;;2.90;69.10;;;;;;5118946;27;19930;-64
2024/01/07 13:55:46;;;;;;;;;;;2.80;68.80;;;;;;5109126;27;19928;-61
2024/01/07 13:58:19;;;;;;;;;;;2.80;69.00;;;;;;5109580;28;19924;-62
2024/01/07 14:00:54;;;;;;;;;;;2.90;69.30;;;;;;5103197;27;19930;-65
2024/01/07 14:03:21;;;;;;;;;;;2.80;69.30;;;;;;5102828;27;20404;-64
2024/01/07 14:05:54;;;;;;;;;;;2.80;69.20;;;;;;5092799;28;20297;-64
2024/01/07 14:08:28;;;;;;;;;;;2.80;69.40;;;;;;5113019;28;20366;-63
2024/01/07 14:11:01;;;;;;;;;;;2.80;69.00;;;;;;5105430;28;19932;-64
2024/01/07 14:13:34;;;;;;;;;;;2.70;68.90;;;;;;5106119;28;19972;-63
2024/01/07 14:16:08;;;;;;;;;;;2.70;68.90;;;;;;5108738;28;19928;-64
2024/01/07 14:18:42;;;;;;;;;;;2.70;68.90;;;;;;5114419;28;20396;-63
2024/01/07 14:21:15;;;;;;;;;;;2.70;69.10;;;;;;5101189;28;19928;-63
2024/01/07 14:23:48;;;;;;;;;;;2.70;68.40;;;;;;5101362;28;19962;-63
2024/01/07 14:26:23;;;;;;;;;;;2.60;68.10;;;;;;5115187;28;19938;-63
2024/01/07 14:28:56;;;;;;;;;;;2.50;67.80;;;;;;5113900;28;19931;-63
2024/01/07 14:31:30;;;;;;;;;;;2.50;67.10;;;;;;5092362;28;19971;-63
2024/01/07 14:34:04;;;;;;;;;;;2.50;67.30;;;;;;5113098;28;20330;-63
2024/01/07 14:36:40;;;;;;;;;;;2.40;67.00;;;;;;5113509;28;19923;-65
2024/01/07 14:39:14;;;;;;;;;;;2.40;67.40;;;;;;5095254;28;20275;-63
2024/01/07 14:41:41;;;;;;;;;;;2.40;67.00;;;;;;5100817;28;19923;-63
2024/01/07 14:44:14;;;;;;;;;;;2.30;66.90;;;;;;5091656;28;19974;-64
2024/01/07 14:46:42;;;;;;;;;;;2.30;67.00;;;;;;5101888;28;20019;-63
2024/01/07 14:49:15;;;;;;;;;;;2.30;66.90;;;;;;5093657;28;20012;-72
2024/01/07 14:51:48;;;;;;;;;;;2.20;67.30;;;;;;5092859;28;20026;-72
2024/01/07 14:54:21;;;;;;;;;;;2.20;67.10;;;;;;5097657;28;19934;-73
2024/01/07 14:56:54;;;;;;;;;;;2.10;67.10;;;;;;5092333;28;19971;-73
2024/01/07 14:59:27;;;;;;;;;;;2.00;67.40;;;;;;5113040;28;19927;-73
2024/01/07 15:02:01;;;;;;;;;;;2.00;67.40;;;;;;5101885;28;20397;-72
2024/01/07 15:04:35;;;;;;;;;;;2.00;67.00;;;;;;5105310;28;19928;-72
2024/01/07 15:07:08;;;;;;;;;;;2.00;67.00;;;;;;5102110;28;19931;-72
2024/01/07 15:09:42;;;;;;;;;;;2.00;66.90;;;;;;5117253;28;19983;-73
2024/01/07 15:12:15;;;;;;;;;;;1.80;66.40;;;;;;5113584;28;19928;-73
2024/01/07 15:14:48;;;;;;;;;;;1.70;66.60;;;;;;5109161;28;19932;-72